KBML/BML METAR and TAF weather

Enter ICAO airport designator
Station Type Date Time Source
KBML METAR 2021/06/24 07:08 UTC NOAA

KBML 240708Z AUTO 00000KT 10SM BKN001 03/02 A3034 RMK AO2 T00330022


Station Type Date Time Source
KBML Decoded METAR 2021/06/24 07:08 UTC NOAA

BERLIN MUNICIPAL AIRPORT, NH, United States (KBML) 44-35N 71-11W 345M
Jun 24, 2021 - 03:08 AM EDT / 2021.06.24 0708 UTC
Wind: Calm:0
Visibility: 10 mile(s):0
Sky conditions: mostly cloudy
Temperature: 37.9 F (3.3 C)
Dew Point: 36.0 F (2.2 C)
Relative Humidity: 92%
Pressure (altimeter): 30.34 in. Hg (1027 hPa)
ob: KBML 240708Z AUTO 00000KT 10SM BKN001 03/02 A3034 RMK AO2 T00330022
cycle: 7

Station Type Date Time Source
KBML TAF UTC NOAA

Error!

Example: see airport list